Time,TemperatureF,DewpointF,PressureIn,WindDirection,WindDirectionDegrees,WindSpeedMPH,WindSpeedGustMPH,Humidity,HourlyPrecipIn,Conditions,Clouds,dailyrainin,SoftwareType,DateUTC
2014-01-03 00:11:00,25.3,22.3,30.37,NNE,22,11.9,-999.0,88,-99.99,,,0.00,Acu-Link.com,2014-01-03 09:11:00,
2014-01-03 00:26:00,25.7,22.4,30.37,NNW,337,11.4,-999.0,87,-99.99,,,0.00,Acu-Link.com,2014-01-03 09:26:00,
2014-01-03 00:41:00,26.4,23.1,30.38,NW,315,6.8,-999.0,87,-99.99,,,0.00,Acu-Link.com,2014-01-03 09:41:00,
2014-01-03 00:56:00,26.2,22.6,30.37,North,0,8.3,-999.0,86,-99.99,,,0.00,Acu-Link.com,2014-01-03 09:56:00,
2014-01-03 01:12:00,26.4,22.5,30.38,NNE,22,8.3,-999.0,85,-99.99,,,0.00,Acu-Link.com,2014-01-03 10:12:00,
2014-01-03 01:27:00,26.6,22.7,30.39,North,0,7.8,-999.0,85,-99.99,,,0.00,Acu-Link.com,2014-01-03 10:27:00,
2014-01-03 01:42:00,27.1,22.6,30.40,North,0,8.3,-999.0,83,-99.99,,,0.00,Acu-Link.com,2014-01-03 10:42:00,
2014-01-03 01:57:00,27.3,22.5,30.40,NNE,22,7.8,-999.0,82,-99.99,,,0.00,Acu-Link.com,2014-01-03 10:57:00,
2014-01-03 02:12:00,27.0,23.1,30.40,NE,45,6.8,-999.0,85,-99.99,,,0.00,Acu-Link.com,2014-01-03 11:12:00,
2014-01-03 02:28:00,27.0,22.8,30.41,NNW,337,8.3,-999.0,84,-99.99,,,0.00,Acu-Link.com,2014-01-03 11:28:00,
2014-01-03 02:43:00,27.0,22.8,30.41,NNE,22,9.4,-999.0,84,-99.99,,,0.00,Acu-Link.com,2014-01-03 11:43:00,
2014-01-03 02:58:00,27.0,22.5,30.41,North,0,7.8,-999.0,83,-99.99,,,0.00,Acu-Link.com,2014-01-03 11:58:00,
2014-01-03 03:13:00,27.0,22.8,30.41,NNE,22,8.9,-999.0,84,-99.99,,,0.00,Acu-Link.com,2014-01-03 12:13:00,
2014-01-03 03:29:00,26.8,22.6,30.42,North,0,10.4,-999.0,84,-99.99,,,0.00,Acu-Link.com,2014-01-03 12:29:00,
2014-01-03 03:44:00,26.8,22.3,30.42,NNE,22,8.9,-999.0,83,-99.99,,,0.00,Acu-Link.com,2014-01-03 12:44:00,
2014-01-03 03:59:00,26.6,21.9,30.43,NNE,22,9.4,-999.0,82,-99.99,,,0.00,Acu-Link.com,2014-01-03 12:59:00,
2014-01-03 04:14:00,26.6,22.1,30.42,NNE,22,10.4,-999.0,83,-99.99,,,0.00,Acu-Link.com,2014-01-03 13:14:00,
2014-01-03 04:29:00,26.6,22.1,30.42,NE,45,10.4,-999.0,83,-99.99,,,0.00,Acu-Link.com,2014-01-03 13:29:00,
2014-01-03 04:45:00,26.6,22.1,30.42,NNE,22,13.0,-999.0,83,-99.99,,,0.00,Acu-Link.com,2014-01-03 13:45:00,
2014-01-03 05:00:00,26.6,22.1,30.42,NNW,337,11.9,-999.0,83,-99.99,,,0.00,Acu-Link.com,2014-01-03 14:00:00,
2014-01-03 05:15:00,26.6,21.9,30.42,NE,45,14.5,-999.0,82,-99.99,,,0.00,Acu-Link.com,2014-01-03 14:15:00,
2014-01-03 05:30:00,26.8,22.1,30.42,NNE,22,7.3,-999.0,82,-99.99,,,0.00,Acu-Link.com,2014-01-03 14:30:00,
2014-01-03 05:45:00,27.1,21.5,30.42,NNW,337,7.3,-999.0,79,-99.99,,,0.00,Acu-Link.com,2014-01-03 14:45:00,
2014-01-03 06:01:00,27.0,22.3,30.43,NW,315,9.9,-999.0,82,-99.99,,,0.00,Acu-Link.com,2014-01-03 15:01:00,
2014-01-03 06:16:00,27.0,22.0,30.43,NE,45,11.9,-999.0,81,-99.99,,,0.00,Acu-Link.com,2014-01-03 15:16:00,
2014-01-03 06:31:00,27.0,21.4,30.43,NNE,22,11.4,-999.0,79,-99.99,,,0.00,Acu-Link.com,2014-01-03 15:31:00,
2014-01-03 06:46:00,27.3,21.4,30.44,NNE,22,7.8,-999.0,78,-99.99,,,0.00,Acu-Link.com,2014-01-03 15:46:00,
2014-01-03 07:02:00,27.5,20.9,30.43,NNE,22,12.5,-999.0,76,-99.99,,,0.00,Acu-Link.com,2014-01-03 16:02:00,
2014-01-03 07:17:00,27.5,20.9,30.45,NNE,22,9.4,-999.0,76,-99.99,,,0.00,Acu-Link.com,2014-01-03 16:17:00,
2014-01-03 07:32:00,27.5,21.3,30.45,North,0,11.9,-999.0,77,-99.99,,,0.00,Acu-Link.com,2014-01-03 16:32:00,
2014-01-03 07:48:00,27.5,21.6,30.45,NNE,22,9.4,-999.0,78,-99.99,,,0.00,Acu-Link.com,2014-01-03 16:48:00,
2014-01-03 08:03:00,27.5,21.6,30.45,NNE,22,12.5,-999.0,78,-99.99,,,0.00,Acu-Link.com,2014-01-03 17:03:00,
2014-01-03 08:18:00,27.5,21.3,30.45,NNE,22,8.3,-999.0,77,-99.99,,,0.00,Acu-Link.com,2014-01-03 17:18:00,
2014-01-03 08:33:00,27.7,21.8,30.46,North,0,11.4,-999.0,78,-99.99,,,0.00,Acu-Link.com,2014-01-03 17:33:00,
2014-01-03 08:48:00,27.7,21.4,30.47,NNE,22,12.5,-999.0,77,-99.99,,,0.00,Acu-Link.com,2014-01-03 17:48:00,
2014-01-03 09:04:00,27.5,22.2,30.48,North,0,13.0,-999.0,80,-99.99,,,0.00,Acu-Link.com,2014-01-03 18:04:00,
2014-01-03 09:19:00,27.1,22.9,30.49,NW,315,14.5,-999.0,84,-99.99,,,0.00,Acu-Link.com,2014-01-03 18:19:00,
2014-01-03 09:34:00,26.4,23.1,30.48,NNE,22,12.5,-999.0,87,-99.99,,,0.00,Acu-Link.com,2014-01-03 18:34:00,
2014-01-03 09:50:00,26.1,23.8,30.49,NNE,22,14.0,-999.0,91,-99.99,,,0.00,Acu-Link.com,2014-01-03 18:50:00,
2014-01-03 10:05:00,26.1,24.4,30.49,North,0,14.0,-999.0,93,-99.99,,,0.00,Acu-Link.com,2014-01-03 19:05:00,
2014-01-03 10:20:00,25.9,24.2,30.50,North,0,15.0,-999.0,93,-99.99,,,0.00,Acu-Link.com,2014-01-03 19:20:00,
2014-01-03 10:35:00,25.7,24.2,30.49,NNE,22,14.5,-999.0,94,-99.99,,,0.00,Acu-Link.com,2014-01-03 19:35:00,
2014-01-03 10:50:00,25.7,24.2,30.49,North,0,15.5,-999.0,94,-99.99,,,0.00,Acu-Link.com,2014-01-03 19:50:00,
2014-01-03 11:06:00,25.7,24.2,30.48,NNE,22,14.5,-999.0,94,-99.99,,,0.00,Acu-Link.com,2014-01-03 20:06:00,
2014-01-03 11:21:00,25.7,24.2,30.48,NNE,22,16.1,-999.0,94,-99.99,,,0.00,Acu-Link.com,2014-01-03 20:21:00,
2014-01-03 11:36:00,25.9,24.2,30.48,NNE,22,12.5,-999.0,93,-99.99,,,0.00,Acu-Link.com,2014-01-03 20:36:00,
2014-01-03 11:52:00,26.2,24.2,30.49,North,0,14.0,-999.0,92,-99.99,,,0.00,Acu-Link.com,2014-01-03 20:52:00,
2014-01-03 12:07:00,26.2,24.2,30.49,NNW,337,15.0,-999.0,92,-99.99,,,0.00,Acu-Link.com,2014-01-03 21:07:00,
2014-01-03 12:22:00,26.2,24.7,30.50,NNW,337,14.5,-999.0,94,-99.99,,,0.00,Acu-Link.com,2014-01-03 21:22:00,
2014-01-03 12:37:00,26.4,24.9,30.52,NE,45,10.9,-999.0,94,-99.99,,,0.00,Acu-Link.com,2014-01-03 21:37:00,
2014-01-03 12:52:00,26.6,24.9,30.53,NNE,22,9.9,-999.0,93,-99.99,,,0.00,Acu-Link.com,2014-01-03 21:52:00,
2014-01-03 13:08:00,26.4,25.2,30.53,NNE,22,11.4,-999.0,95,-99.99,,,0.00,Acu-Link.com,2014-01-03 22:08:00,
2014-01-03 13:23:00,26.4,25.4,30.53,NNE,22,11.9,-999.0,96,-99.99,,,0.00,Acu-Link.com,2014-01-03 22:23:00,
2014-01-03 13:39:00,26.4,25.7,30.52,NNE,22,13.0,-999.0,97,-99.99,,,0.00,Acu-Link.com,2014-01-03 22:39:00,
2014-01-03 13:54:00,26.4,25.7,30.53,NNE,22,13.5,-999.0,97,-99.99,,,0.00,Acu-Link.com,2014-01-03 22:54:00,
2014-01-03 14:09:00,26.4,25.7,30.53,North,0,11.9,-999.0,97,-99.99,,,0.00,Acu-Link.com,2014-01-03 23:09:00,
2014-01-03 14:24:00,26.6,25.6,30.53,NNE,22,9.9,-999.0,96,-99.99,,,0.00,Acu-Link.com,2014-01-03 23:24:00,
2014-01-03 14:40:00,26.8,25.8,30.54,North,0,10.9,-999.0,96,-99.99,,,0.00,Acu-Link.com,2014-01-03 23:40:00,
2014-01-03 14:55:00,26.8,25.8,30.54,NNE,22,10.9,-999.0,96,-99.99,,,0.00,Acu-Link.com,2014-01-03 23:55:00,
2014-01-03 15:10:00,26.8,25.8,30.55,North,0,10.4,-999.0,96,-99.99,,,0.00,Acu-Link.com,2014-01-04 00:10:00,
2014-01-03 15:25:00,26.6,26.1,30.55,NNE,22,9.9,-999.0,98,-99.99,,,0.00,Acu-Link.com,2014-01-04 00:25:00,
2014-01-03 15:40:00,26.6,26.1,30.54,NNE,22,9.4,-999.0,98,-99.99,,,0.00,Acu-Link.com,2014-01-04 00:40:00,
2014-01-03 15:56:00,26.6,26.1,30.54,North,0,11.9,-999.0,98,-99.99,,,0.00,Acu-Link.com,2014-01-04 00:56:00,
2014-01-03 16:11:00,26.6,26.1,30.55,NNE,22,10.9,-999.0,98,-99.99,,,0.00,Acu-Link.com,2014-01-04 01:11:00,
2014-01-03 16:26:00,26.8,26.3,30.55,NNW,337,11.4,-999.0,98,-99.99,,,0.00,Acu-Link.com,2014-01-04 01:26:00,
2014-01-03 16:42:00,27.0,26.5,30.55,North,0,13.0,-999.0,98,-99.99,,,0.00,Acu-Link.com,2014-01-04 01:42:00,
2014-01-03 16:57:00,26.8,26.3,30.55,NNE,22,13.5,-999.0,98,-99.99,,,0.00,Acu-Link.com,2014-01-04 01:57:00,
2014-01-03 17:12:00,27.0,26.3,30.55,NNE,22,9.9,-999.0,97,-99.99,,,0.00,Acu-Link.com,2014-01-04 02:12:00,
2014-01-03 17:28:00,27.0,26.3,30.55,NNE,22,10.4,-999.0,97,-99.99,,,0.00,Acu-Link.com,2014-01-04 02:28:00,
2014-01-03 17:43:00,27.0,26.0,30.55,NE,45,12.5,-999.0,96,-99.99,,,0.00,Acu-Link.com,2014-01-04 02:43:00,
2014-01-03 17:58:00,27.1,25.9,30.56,NNE,22,12.5,-999.0,95,-99.99,,,0.00,Acu-Link.com,2014-01-04 02:58:00,
2014-01-03 18:13:00,27.1,25.9,30.56,NNW,337,11.4,-999.0,95,-99.99,,,0.00,Acu-Link.com,2014-01-04 03:13:00,
2014-01-03 18:28:00,27.1,25.9,30.56,NNE,22,14.0,-999.0,95,-99.99,,,0.00,Acu-Link.com,2014-01-04 03:28:00,
2014-01-03 18:44:00,27.1,25.6,30.56,NNE,22,16.1,-999.0,94,-99.99,,,0.00,Acu-Link.com,2014-01-04 03:44:00,
2014-01-03 18:59:00,27.0,25.8,30.55,NNE,22,13.5,-999.0,95,-99.99,,,0.00,Acu-Link.com,2014-01-04 03:59:00,
2014-01-03 19:14:00,27.1,25.1,30.55,NE,45,12.5,-999.0,92,-99.99,,,0.00,Acu-Link.com,2014-01-04 04:14:00,
2014-01-03 19:29:00,27.1,25.1,30.55,NNE,22,14.0,-999.0,92,-99.99,,,0.00,Acu-Link.com,2014-01-04 04:29:00,
2014-01-03 19:45:00,26.8,25.1,30.55,NNE,22,14.5,-999.0,93,-99.99,,,0.00,Acu-Link.com,2014-01-04 04:45:00,
2014-01-03 20:00:00,26.8,24.5,30.55,NNE,22,13.5,-999.0,91,-99.99,,,0.00,Acu-Link.com,2014-01-04 05:00:00,
2014-01-03 20:15:00,27.0,24.5,30.55,NE,45,15.0,-999.0,90,-99.99,,,0.00,Acu-Link.com,2014-01-04 05:15:00,
2014-01-03 20:30:00,27.0,23.9,30.56,NNE,22,12.5,-999.0,88,-99.99,,,0.00,Acu-Link.com,2014-01-04 05:30:00,
2014-01-03 20:45:00,27.1,23.2,30.55,NE,45,11.4,-999.0,85,-99.99,,,0.00,Acu-Link.com,2014-01-04 05:45:00,
2014-01-03 21:01:00,27.3,23.4,30.55,NNE,22,11.9,-999.0,85,-99.99,,,0.00,Acu-Link.com,2014-01-04 06:01:00,
2014-01-03 21:16:00,27.1,22.9,30.55,NNE,22,11.9,-999.0,84,-99.99,,,0.00,Acu-Link.com,2014-01-04 06:16:00,
2014-01-03 21:31:00,27.1,22.3,30.54,NNE,22,14.5,-999.0,82,-99.99,,,0.00,Acu-Link.com,2014-01-04 06:31:00,
2014-01-03 21:46:00,26.8,21.8,30.53,NNW,337,13.5,-999.0,81,-99.99,,,0.00,Acu-Link.com,2014-01-04 06:46:00,
2014-01-03 22:02:00,26.4,21.7,30.53,NNE,22,13.0,-999.0,82,-99.99,,,0.00,Acu-Link.com,2014-01-04 07:02:00,
2014-01-03 22:17:00,26.4,21.4,30.54,North,0,9.9,-999.0,81,-99.99,,,0.00,Acu-Link.com,2014-01-04 07:17:00,
2014-01-03 22:32:00,26.2,21.5,30.53,North,0,11.9,-999.0,82,-99.99,,,0.00,Acu-Link.com,2014-01-04 07:32:00,
2014-01-03 22:47:00,26.2,21.5,30.53,NNE,22,14.5,-999.0,82,-99.99,,,0.00,Acu-Link.com,2014-01-04 07:47:00,
2014-01-03 23:02:00,26.2,21.2,30.54,NNE,22,14.0,-999.0,81,-99.99,,,0.00,Acu-Link.com,2014-01-04 08:02:00,
2014-01-03 23:18:00,26.2,20.9,30.54,North,0,11.4,-999.0,80,-99.99,,,0.00,Acu-Link.com,2014-01-04 08:18:00,
2014-01-03 23:33:00,26.8,21.2,30.53,NE,45,15.0,-999.0,79,-99.99,,,0.00,Acu-Link.com,2014-01-04 08:33:00,
2014-01-03 23:48:00,26.4,21.1,30.53,NE,45,15.0,-999.0,80,-99.99,,,0.00,Acu-Link.com,2014-01-04 08:48:00,